createdAt,value
2019-04-05T00:00:55.993Z,18.47
2019-04-05T00:03:25.905Z,17.17
2019-04-05T00:05:55.667Z,17.00
2019-04-05T00:08:25.413Z,15.60
2019-04-05T00:10:54.951Z,18.97
2019-04-05T00:13:24.497Z,16.90
2019-04-05T00:15:54.342Z,19.77
2019-04-05T00:18:24.080Z,17.67
2019-04-05T00:20:53.823Z,16.30
2019-04-05T00:23:23.358Z,16.70
2019-04-05T00:25:53.210Z,19.97
2019-04-05T00:28:23.083Z,17.60
2019-04-05T00:30:52.547Z,19.77
2019-04-05T00:33:22.027Z,19.50
2019-04-05T00:35:51.771Z,18.20
2019-04-05T00:38:21.312Z,21.27
2019-04-05T00:40:50.803Z,21.80
2019-04-05T00:43:20.275Z,19.47
2019-04-05T00:45:49.740Z,17.37
2019-04-05T00:48:19.618Z,20.33
2019-04-05T00:50:49.100Z,19.20
2019-04-05T00:53:18.660Z,21.30
2019-04-05T00:55:48.183Z,20.07
2019-04-05T00:58:17.783Z,24.50
2019-04-05T01:00:47.401Z,25.93
2019-04-05T01:03:16.872Z,23.37
2019-04-05T01:05:46.501Z,25.57
2019-04-05T01:08:16.034Z,20.30
2019-04-05T01:10:45.782Z,24.67
2019-04-05T01:13:15.314Z,26.37
2019-04-05T01:15:44.782Z,24.87
2019-04-05T01:18:14.256Z,23.67
2019-04-05T01:20:46.346Z,24.40
2019-04-05T01:23:17.074Z,23.47
2019-04-05T01:25:47.079Z,22.00
2019-04-05T01:28:17.969Z,23.77
2019-04-05T01:30:47.515Z,22.50
2019-04-05T01:33:17.047Z,23.00
2019-04-05T01:35:46.623Z,22.97
2019-04-05T01:38:16.102Z,21.63
2019-04-05T01:40:46.999Z,25.43
2019-04-05T01:43:17.111Z,24.03
2019-04-05T01:45:53.535Z,22.87
2019-04-05T01:48:19.082Z,23.30
2019-04-05T01:50:48.612Z,25.30
2019-04-05T01:53:18.863Z,20.70
2019-04-05T01:55:48.404Z,21.60
2019-04-05T01:58:17.854Z,23.57
2019-04-05T02:00:47.476Z,23.40
2019-04-05T02:03:17.351Z,22.27
2019-04-05T02:05:46.913Z,24.80
2019-04-05T02:08:16.609Z,20.47
2019-04-05T02:10:46.319Z,23.03
2019-04-05T02:13:16.033Z,23.37
2019-04-05T02:15:45.634Z,23.27
2019-04-05T02:18:15.258Z,26.43
2019-04-05T02:20:44.860Z,27.10
2019-04-05T02:23:14.419Z,23.00
2019-04-05T02:25:43.980Z,31.23
2019-04-05T02:28:13.899Z,28.07
2019-04-05T02:30:43.473Z,26.13
2019-04-05T02:33:12.934Z,24.13
2019-04-05T02:35:42.554Z,24.70
2019-04-05T02:38:12.172Z,28.03
2019-04-05T02:40:43.357Z,27.73
2019-04-05T02:43:16.409Z,26.57
2019-04-05T02:45:48.401Z,28.07
2019-04-05T02:48:19.201Z,27.93
2019-04-05T02:50:53.357Z,27.13
2019-04-05T02:53:23.444Z,26.90
2019-04-05T02:55:54.037Z,22.20
2019-04-05T02:58:24.399Z,21.40
2019-04-05T03:00:54.268Z,24.60
2019-04-05T03:03:23.819Z,28.17
2019-04-05T03:05:54.269Z,29.20
2019-04-05T03:08:23.733Z,28.53
2019-04-05T03:11:08.997Z,28.93
2019-04-05T03:13:43.115Z,28.70
2019-04-05T03:16:17.484Z,31.07
2019-04-05T03:18:53.473Z,31.53
2019-04-05T03:21:25.725Z,27.47
2019-04-05T03:23:57.742Z,29.00
2019-04-05T03:26:31.778Z,26.90
2019-04-05T03:29:04.952Z,27.83
2019-04-05T03:31:34.885Z,29.10
2019-04-05T03:34:04.738Z,28.83
2019-04-05T03:36:34.902Z,27.80
2019-04-05T03:39:06.768Z,29.40
2019-04-05T03:41:36.365Z,28.47
2019-04-05T03:44:06.827Z,29.50
2019-04-05T03:46:36.396Z,27.73
2019-04-05T03:49:06.775Z,25.10
2019-04-05T03:51:36.526Z,26.57
2019-04-05T03:54:06.875Z,24.50
2019-04-05T03:56:38.155Z,27.73
2019-04-05T03:59:08.604Z,26.10
2019-04-05T04:01:38.366Z,29.87
2019-04-05T04:04:07.844Z,26.70
2019-04-05T04:06:37.338Z,26.30
2019-04-05T04:09:07.632Z,26.17
2019-04-05T04:11:37.191Z,29.47
2019-04-05T04:14:07.487Z,25.97
2019-04-05T04:16:37.540Z,28.60
2019-04-05T04:19:08.487Z,27.90
2019-04-05T04:21:42.629Z,32.23
2019-04-05T04:24:12.635Z,31.17
2019-04-05T04:26:42.814Z,30.60
2019-04-05T04:29:12.970Z,27.23
2019-04-05T04:31:42.505Z,28.03
2019-04-05T04:34:13.104Z,30.87
2019-04-05T04:36:42.819Z,32.30
2019-04-05T04:39:12.597Z,31.33
2019-04-05T04:41:42.399Z,33.00
2019-04-05T04:44:11.966Z,40.07
2019-04-05T04:46:41.731Z,34.10
2019-04-05T04:49:11.591Z,30.07
2019-04-05T04:51:41.568Z,31.03
2019-04-05T04:54:11.328Z,35.60
2019-04-05T04:56:41.203Z,34.50
2019-04-05T04:59:10.972Z,32.83
2019-04-05T05:01:40.725Z,32.60
2019-04-05T05:04:10.535Z,29.70
2019-04-05T05:06:40.085Z,31.03
2019-04-05T05:09:09.675Z,32.43
2019-04-05T05:11:39.545Z,26.93
2019-04-05T05:14:09.721Z,30.67
2019-04-05T05:16:39.301Z,30.40
2019-04-05T05:19:08.713Z,32.80
2019-04-05T05:21:38.213Z,37.20
2019-04-05T05:24:07.780Z,31.73
2019-04-05T05:26:37.485Z,37.07
2019-04-05T05:29:06.901Z,38.10
2019-04-05T05:31:36.475Z,33.00
2019-04-05T05:34:06.349Z,32.03
2019-04-05T05:36:36.612Z,34.57
2019-04-05T05:39:08.155Z,32.30
2019-04-05T05:41:37.711Z,32.60
2019-04-05T05:44:07.262Z,31.53
2019-04-05T05:46:36.769Z,28.07
2019-04-05T05:49:06.646Z,30.20
2019-04-05T05:51:36.287Z,28.00
2019-04-05T05:54:05.849Z,29.77
2019-04-05T05:56:35.649Z,30.17
2019-04-05T05:59:05.600Z,23.77
2019-04-05T06:01:35.007Z,27.87
2019-04-05T06:04:04.526Z,25.63
2019-04-05T06:06:33.936Z,26.80
2019-04-05T06:09:05.056Z,25.73
2019-04-05T06:11:34.491Z,28.47
2019-04-05T06:14:04.413Z,26.43
2019-04-05T06:16:45.859Z,25.63
2019-04-05T06:19:05.203Z,22.03
2019-04-05T06:21:34.668Z,21.23
2019-04-05T06:24:23.474Z,23.10
2019-04-05T06:26:52.914Z,22.40
2019-04-05T06:29:22.336Z,23.83
2019-04-05T06:31:51.821Z,24.63
2019-04-05T06:34:21.246Z,21.17
2019-04-05T06:36:51.310Z,20.03
2019-04-05T06:39:21.242Z,22.07
2019-04-05T06:41:50.715Z,18.57
2019-04-05T06:44:20.115Z,18.13
2019-04-05T06:46:49.552Z,17.90
2019-04-05T06:49:18.959Z,17.20
2019-04-05T06:51:48.415Z,15.73
2019-04-05T06:54:17.832Z,13.50
2019-04-05T06:56:47.234Z,14.80
2019-04-05T06:59:19.342Z,14.97
2019-04-05T07:01:48.179Z,17.27
2019-04-05T07:04:17.616Z,12.90
2019-04-05T07:06:47.043Z,11.37
2019-04-05T07:09:16.462Z,14.03
2019-04-05T07:11:45.899Z,13.13
2019-04-05T07:14:15.700Z,13.63
2019-04-05T07:16:45.304Z,11.70
2019-04-05T07:19:14.725Z,12.93
2019-04-05T07:21:44.172Z,13.17
2019-04-05T07:24:13.594Z,16.90
2019-04-05T07:26:43.006Z,15.70
2019-04-05T07:29:12.796Z,14.10
2019-04-05T07:31:42.217Z,17.03
2019-04-05T07:34:11.999Z,17.10
2019-04-05T07:36:41.415Z,16.20
2019-04-05T07:39:11.209Z,12.33
2019-04-05T07:41:40.655Z,10.63
2019-04-05T07:44:10.067Z,11.33
2019-04-05T07:46:39.499Z,16.17
2019-04-05T07:49:09.214Z,9.93
2019-04-05T07:51:38.637Z,12.43
2019-04-05T07:54:08.080Z,9.13
2019-04-05T07:56:37.496Z,11.00
2019-04-05T07:59:07.030Z,16.00
2019-04-05T08:01:36.456Z,10.70
2019-04-05T08:04:06.023Z,11.70
2019-04-05T08:06:37.724Z,11.60
2019-04-05T08:09:12.633Z,11.87
2019-04-05T08:11:44.368Z,10.50
2019-04-05T08:14:17.757Z,11.33
2019-04-05T08:16:45.964Z,10.80
2019-04-05T08:19:16.049Z,12.57
2019-04-05T08:21:45.478Z,10.37
2019-04-05T08:24:15.057Z,11.23
2019-04-05T08:26:44.472Z,12.23
2019-04-05T08:29:13.907Z,11.33
2019-04-05T08:31:43.389Z,11.57
2019-04-05T08:34:12.809Z,13.80
2019-04-05T08:36:42.323Z,13.30
2019-04-05T08:39:11.811Z,9.93
2019-04-05T08:41:41.247Z,11.40
2019-04-05T08:44:10.726Z,12.13
2019-04-05T08:46:40.138Z,9.20
2019-04-05T08:49:11.715Z,8.30
2019-04-05T08:51:40.685Z,7.63
2019-04-05T08:54:10.272Z,11.63
2019-04-05T08:56:39.755Z,8.70
2019-04-05T08:59:09.192Z,7.90
2019-04-05T09:01:38.671Z,7.13
2019-04-05T09:04:08.168Z,6.70
2019-04-05T09:06:37.607Z,11.63
2019-04-05T09:09:08.046Z,8.33
2019-04-05T09:11:37.557Z,7.97
2019-04-05T09:14:07.052Z,9.43
2019-04-05T09:16:36.456Z,7.37
2019-04-05T09:19:06.199Z,7.73
2019-04-05T09:21:40.286Z,9.40
2019-04-05T09:24:06.843Z,7.27
2019-04-05T09:26:36.251Z,7.33
2019-04-05T09:29:09.112Z,6.63
2019-04-05T09:31:37.326Z,8.90
2019-04-05T09:34:06.747Z,6.43
2019-04-05T09:36:36.185Z,6.83
2019-04-05T09:39:13.848Z,44.93
2019-04-05T09:41:41.495Z,5.07
2019-04-05T09:44:10.986Z,8.13
2019-04-05T09:46:46.972Z,9.33
2019-04-05T09:49:11.545Z,9.43
2019-04-05T09:51:40.956Z,7.73
2019-04-05T09:54:10.412Z,13.00
2019-04-05T09:56:40.221Z,7.13
2019-04-05T09:59:09.697Z,5.60
2019-04-05T10:01:39.120Z,5.20
2019-04-05T10:04:08.617Z,6.43
2019-04-05T10:06:38.431Z,6.63
2019-04-05T10:09:09.579Z,5.50
2019-04-05T10:11:39.000Z,5.50
2019-04-05T10:14:08.439Z,4.43
2019-04-05T10:16:37.931Z,6.03
2019-04-05T10:19:07.376Z,5.23
2019-04-05T10:21:36.783Z,4.97
2019-04-05T10:24:06.243Z,5.90
2019-04-05T10:26:35.698Z,4.57
2019-04-05T10:29:05.179Z,4.03
2019-04-05T10:31:34.962Z,10.67
2019-04-05T10:34:04.522Z,5.63
2019-04-05T10:36:33.983Z,6.93
2019-04-05T10:39:04.844Z,5.07
2019-04-05T10:41:34.268Z,5.57
2019-04-05T10:44:03.972Z,5.53
2019-04-05T10:46:33.529Z,3.40
2019-04-05T10:49:02.964Z,3.50
2019-04-05T10:51:32.395Z,3.93
2019-04-05T10:54:01.793Z,6.27
2019-04-05T10:56:31.228Z,5.43
2019-04-05T10:59:00.649Z,3.53
2019-04-05T11:01:30.113Z,6.03
2019-04-05T11:03:59.525Z,6.37
2019-04-05T11:06:28.941Z,4.80
2019-04-05T11:08:58.381Z,6.17
2019-04-05T11:11:27.858Z,6.43
2019-04-05T11:13:57.426Z,6.00
2019-04-05T11:16:26.832Z,5.33
2019-04-05T11:18:56.288Z,5.93
2019-04-05T11:21:25.704Z,6.40
2019-04-05T11:23:55.744Z,5.23
2019-04-05T11:26:25.832Z,4.27
2019-04-05T11:28:55.254Z,6.40
2019-04-05T11:31:24.780Z,5.60
2019-04-05T11:33:55.270Z,8.60
2019-04-05T11:36:25.995Z,6.63
2019-04-05T11:38:55.582Z,5.07
2019-04-05T11:41:26.938Z,4.83
2019-04-05T11:43:58.504Z,5.07
2019-04-05T11:46:30.953Z,5.20
2019-04-05T11:49:01.374Z,4.77
2019-04-05T11:51:32.388Z,5.63
2019-04-05T11:54:01.943Z,7.20
2019-04-05T11:56:31.369Z,4.83
2019-04-05T11:59:02.480Z,3.47
2019-04-05T12:01:48.442Z,7.23
2019-04-05T12:04:17.874Z,4.70
2019-04-05T12:06:47.292Z,5.27
2019-04-05T12:09:16.722Z,4.27
2019-04-05T12:11:46.505Z,4.77
2019-04-05T12:14:29.280Z,3.83
2019-04-05T12:16:47.244Z,6.17
2019-04-05T12:19:16.656Z,5.20
2019-04-05T12:21:46.088Z,5.07
2019-04-05T12:24:15.520Z,5.07
2019-04-05T12:26:44.951Z,3.20
2019-04-05T12:29:14.375Z,5.43
2019-04-05T12:31:44.121Z,5.23
2019-04-05T12:34:13.621Z,7.60
2019-04-05T12:36:43.128Z,6.07
2019-04-05T12:39:12.556Z,4.97
2019-04-05T12:41:44.952Z,5.37
2019-04-05T12:44:15.177Z,6.50
2019-04-05T12:46:45.838Z,7.97
2019-04-05T12:49:15.837Z,7.13
2019-04-05T12:51:46.028Z,6.47
2019-04-05T12:54:16.062Z,7.80
2019-04-05T12:56:45.648Z,6.60
2019-04-05T12:59:15.133Z,4.53
2019-04-05T13:01:45.543Z,5.63
2019-04-05T13:04:15.734Z,6.47
2019-04-05T13:06:45.134Z,6.67
2019-04-05T13:09:14.679Z,6.57
2019-04-05T13:11:44.160Z,6.47
2019-04-05T13:14:13.587Z,7.43
2019-04-05T13:16:43.034Z,7.93
2019-04-05T13:19:12.475Z,8.50
2019-04-05T13:21:41.894Z,7.40
2019-04-05T13:24:11.314Z,7.83
2019-04-05T13:26:42.049Z,9.17
2019-04-05T13:29:11.960Z,9.87
2019-04-05T13:31:41.354Z,7.40
2019-04-05T13:34:11.185Z,7.93
2019-04-05T13:36:40.608Z,10.93
2019-04-05T13:39:10.397Z,7.30
2019-04-05T13:41:39.894Z,5.93
2019-04-05T13:44:09.306Z,6.23
2019-04-05T13:46:39.537Z,6.77
2019-04-05T13:49:10.563Z,7.87
2019-04-05T13:51:42.130Z,6.13
2019-04-05T13:54:11.977Z,8.03
2019-04-05T13:56:41.859Z,6.90
2019-04-05T13:59:11.390Z,6.97
2019-04-05T14:01:40.819Z,7.13
2019-04-05T14:04:10.349Z,7.20
2019-04-05T14:06:39.843Z,5.33
2019-04-05T14:09:10.472Z,5.77
2019-04-05T14:11:40.327Z,8.50
2019-04-05T14:14:12.160Z,6.23
2019-04-05T14:16:43.039Z,7.40
2019-04-05T14:19:12.057Z,7.67
2019-04-05T14:21:47.295Z,6.10
2019-04-05T14:24:12.648Z,10.00
2019-04-05T14:26:43.719Z,8.30
2019-04-05T14:29:13.297Z,7.97
2019-04-05T14:31:42.782Z,7.17
2019-04-05T14:34:12.357Z,8.00
2019-04-05T14:36:41.778Z,7.97
2019-04-05T14:39:11.541Z,7.40
2019-04-05T14:41:40.968Z,10.40
2019-04-05T14:44:10.393Z,7.70
2019-04-05T14:46:39.826Z,7.07
2019-04-05T14:49:09.636Z,9.47
2019-04-05T14:51:39.126Z,10.90
2019-04-05T14:54:10.006Z,11.23
2019-04-05T14:56:39.739Z,11.33
2019-04-05T14:59:09.167Z,11.60
2019-04-05T15:01:38.983Z,10.93
2019-04-05T15:04:08.785Z,10.20
2019-04-05T15:06:38.201Z,9.27
2019-04-05T15:09:08.070Z,10.23
2019-04-05T15:11:37.590Z,10.87
2019-04-05T15:14:07.390Z,12.67
2019-04-05T15:16:36.837Z,13.67
2019-04-05T15:19:06.355Z,15.03
2019-04-05T15:21:38.793Z,13.00
2019-04-05T15:24:08.793Z,16.47
2019-04-05T15:26:38.542Z,11.73
2019-04-05T15:29:08.323Z,16.03
2019-04-05T15:31:38.114Z,16.03
2019-04-05T15:34:07.525Z,16.40
2019-04-05T15:36:36.978Z,16.63
2019-04-05T15:39:09.417Z,16.03
2019-04-05T15:41:38.925Z,14.93
2019-04-05T15:44:08.340Z,16.13
2019-04-05T15:46:37.799Z,21.20
2019-04-05T15:49:07.270Z,22.20
2019-04-05T15:51:36.707Z,21.17
2019-04-05T15:54:06.279Z,21.57
2019-04-05T15:56:35.703Z,20.40
2019-04-05T15:59:05.489Z,19.43
2019-04-05T16:01:35.002Z,21.17
2019-04-05T16:04:04.433Z,22.73
2019-04-05T16:06:34.014Z,20.67
2019-04-05T16:09:03.944Z,24.73
2019-04-05T16:11:33.420Z,24.10
2019-04-05T16:14:02.843Z,23.57
2019-04-05T16:16:32.736Z,25.43
2019-04-05T16:19:02.251Z,24.23
2019-04-05T16:21:31.671Z,25.37
2019-04-05T16:24:01.127Z,24.10
2019-04-05T16:26:30.545Z,25.57
2019-04-05T16:28:59.988Z,23.77
2019-04-05T16:31:29.415Z,26.47
2019-04-05T16:33:58.840Z,26.63
2019-04-05T16:36:30.897Z,25.37
2019-04-05T16:38:59.582Z,26.40
2019-04-05T16:41:29.034Z,26.27
2019-04-05T16:43:58.462Z,31.73
2019-04-05T16:46:27.920Z,28.90
2019-04-05T16:48:57.414Z,26.67
2019-04-05T16:51:27.046Z,26.93
2019-04-05T16:54:00.047Z,28.83
2019-04-05T16:56:30.461Z,27.50
2019-04-05T16:59:00.007Z,26.83
2019-04-05T17:01:29.531Z,28.00
2019-04-05T17:03:59.301Z,26.23
2019-04-05T17:06:28.748Z,26.40
2019-04-05T17:08:58.184Z,25.53
2019-04-05T17:11:27.651Z,28.20
2019-04-05T17:13:59.547Z,26.37
2019-04-05T17:16:28.718Z,24.80
2019-04-05T17:18:58.152Z,25.70
2019-04-05T17:21:27.649Z,23.17
2019-04-05T17:23:57.085Z,26.73
2019-04-05T17:26:26.513Z,28.17
2019-04-05T17:28:55.930Z,27.67
2019-04-05T17:31:25.560Z,25.70
2019-04-05T17:33:55.044Z,24.03
2019-04-05T17:36:24.499Z,21.47
2019-04-05T17:38:53.992Z,21.47
2019-04-05T17:41:23.752Z,21.90
2019-04-05T17:43:53.208Z,24.00
2019-04-05T17:46:23.081Z,19.47
2019-04-05T17:48:52.551Z,25.47
2019-04-05T17:51:22.234Z,25.17
2019-04-05T17:53:51.722Z,25.07
2019-04-05T17:56:21.705Z,21.90
2019-04-05T17:58:51.453Z,23.07
2019-04-05T18:01:20.893Z,26.33
2019-04-05T18:03:50.617Z,22.17
2019-04-05T18:06:20.052Z,23.90
2019-04-05T18:08:49.495Z,24.23
2019-04-05T18:11:18.928Z,17.87
2019-04-05T18:13:48.415Z,20.43
2019-04-05T18:16:17.835Z,20.00
2019-04-05T18:18:47.651Z,20.73
2019-04-05T18:21:17.121Z,21.50
2019-04-05T18:23:46.545Z,21.80
2019-04-05T18:26:16.131Z,21.10
2019-04-05T18:28:45.560Z,21.23
2019-04-05T18:31:14.998Z,20.83
2019-04-05T18:33:44.458Z,21.07
2019-04-05T18:36:14.426Z,23.73
2019-04-05T18:38:44.287Z,20.77
2019-04-05T18:41:13.770Z,23.17
2019-04-05T18:43:43.264Z,23.67
2019-04-05T18:46:12.726Z,18.60
2019-04-05T18:48:42.218Z,20.53
2019-04-05T18:51:11.666Z,18.20
2019-04-05T18:53:41.151Z,16.70
2019-04-05T18:56:10.592Z,18.73
2019-04-05T18:58:40.093Z,19.23
2019-04-05T19:01:10.087Z,21.13
2019-04-05T19:03:39.481Z,21.77
2019-04-05T19:06:08.975Z,18.27
2019-04-05T19:08:39.816Z,19.53
2019-04-05T19:11:09.714Z,18.30
2019-04-05T19:13:39.164Z,19.43
2019-04-05T19:16:08.590Z,16.90
2019-04-05T19:18:38.189Z,20.00
2019-04-05T19:21:07.699Z,15.03
2019-04-05T19:23:50.005Z,19.67
2019-04-05T19:26:08.363Z,19.33
2019-04-05T19:28:37.853Z,20.07
2019-04-05T19:49:57.203Z,20.00
2019-04-05T19:52:26.630Z,23.93
2019-04-05T19:54:56.061Z,21.37
2019-04-05T19:57:25.509Z,27.07
2019-04-05T19:59:54.931Z,26.97
2019-04-05T20:02:24.399Z,27.20
2019-04-05T20:04:53.857Z,33.00
2019-04-05T20:07:23.330Z,34.27
2019-04-05T20:09:53.242Z,44.27
2019-04-05T20:12:22.676Z,47.83
2019-04-05T20:14:54.019Z,47.10
2019-04-05T20:17:23.441Z,55.93
2019-04-05T20:19:52.878Z,57.57
2019-04-05T20:22:22.317Z,61.80
2019-04-05T20:24:51.747Z,61.27
2019-04-05T20:27:21.188Z,66.50
2019-04-05T20:29:50.687Z,66.33
2019-04-05T20:32:20.157Z,67.37
2019-04-05T20:34:49.584Z,70.03
2019-04-05T20:37:19.092Z,73.80
2019-04-05T20:39:48.541Z,77.57
2019-04-05T20:42:17.970Z,76.37
2019-04-05T20:44:47.445Z,76.60
2019-04-05T20:47:16.858Z,80.67
2019-04-05T20:49:46.277Z,80.80
2019-04-05T20:52:15.721Z,80.97
2019-04-05T20:54:45.158Z,82.57
2019-04-05T20:57:14.616Z,79.77
2019-04-05T20:59:44.049Z,82.60
2019-04-05T21:02:13.475Z,81.97
2019-04-05T21:04:42.928Z,78.90
2019-04-05T21:07:12.354Z,79.60
2019-04-05T21:09:41.845Z,79.60
2019-04-05T21:12:11.320Z,80.60
2019-04-05T21:14:40.795Z,77.23
2019-04-05T21:17:10.229Z,76.60
2019-04-05T21:19:39.657Z,75.20
2019-04-05T21:22:09.100Z,78.57
2019-04-05T21:24:38.539Z,71.43
2019-04-05T21:27:08.318Z,70.43
2019-04-05T21:29:37.762Z,66.87
2019-04-05T21:32:07.291Z,73.23
2019-04-05T21:34:36.801Z,71.57
2019-04-05T21:37:06.361Z,67.50
2019-04-05T21:39:36.026Z,69.77
2019-04-05T21:42:06.343Z,71.63
2019-04-05T21:44:35.813Z,71.67
2019-04-05T21:47:05.680Z,68.63
2019-04-05T21:49:35.152Z,71.70
2019-04-05T21:52:05.107Z,73.23
2019-04-05T21:54:34.600Z,71.93
2019-04-05T21:57:04.164Z,69.67
2019-04-05T21:59:33.693Z,70.03
2019-04-05T22:02:03.224Z,76.33
2019-04-05T22:04:32.713Z,76.93
2019-04-05T22:07:02.185Z,74.00
2019-04-05T22:09:31.685Z,76.03
2019-04-05T22:12:01.170Z,71.43
2019-04-05T22:14:30.675Z,73.67
2019-04-05T22:17:02.647Z,78.70
2019-04-05T22:19:32.168Z,79.17
2019-04-05T22:22:02.258Z,86.13
2019-04-05T22:24:31.783Z,77.07
2019-04-05T22:27:01.348Z,77.97
2019-04-05T22:29:30.929Z,80.73
2019-04-05T22:32:00.413Z,87.47
2019-04-05T22:34:29.931Z,80.27
2019-04-05T22:36:59.819Z,80.40
2019-04-05T22:39:29.744Z,84.23
2019-04-05T22:41:59.244Z,80.37
2019-04-05T22:44:37.606Z,83.67
2019-04-05T22:46:59.983Z,79.90
2019-04-05T22:49:29.470Z,83.97
2019-04-05T22:51:59.003Z,83.70
2019-04-05T22:54:28.571Z,87.57
2019-04-05T22:56:58.135Z,86.20
2019-04-05T22:59:27.652Z,88.43
2019-04-05T23:01:57.203Z,91.60
2019-04-05T23:04:26.743Z,93.43
2019-04-05T23:06:56.243Z,97.33
2019-04-05T23:09:25.803Z,92.77
2019-04-05T23:11:55.334Z,90.63
2019-04-05T23:14:24.966Z,94.57
2019-04-05T23:16:54.486Z,96.57
2019-04-05T23:19:23.976Z,96.07
2019-04-05T23:21:53.479Z,98.07
2019-04-05T23:24:22.990Z,94.97
2019-04-05T23:26:52.487Z,103.90
2019-04-05T23:29:22.003Z,96.67
2019-04-05T23:31:51.495Z,102.13
2019-04-05T23:34:21.081Z,99.57
2019-04-05T23:36:50.602Z,98.63
2019-04-05T23:39:20.644Z,95.10
2019-04-05T23:41:50.146Z,103.27
2019-04-05T23:44:19.647Z,101.93
2019-04-05T23:46:49.172Z,103.43
2019-04-05T23:49:18.667Z,102.90
2019-04-05T23:51:48.207Z,101.60
2019-04-05T23:54:17.762Z,103.23
2019-04-05T23:56:47.671Z,108.73
2019-04-05T23:59:17.348Z,104.40
